Time;durP1;ratioP1;P1;durP2;ratioP2;P2;SDS_P1;SDS_P2;PMS_P1;PMS_P2;Temp;Humidity;BMP_temperature;BMP_pressure;BME280_temperature;BME280_humidity;BME280_pressure;Samples;Min_cycle;Max_cycle;Signal;HPM_P1;HPM_P2
2022/07/28 00:02:06;;;;;;;0.00;0.00;;;9.60;99.90;;;;;;5033270;28;20045;-81
2022/07/28 00:04:32;;;;;;;0.15;0.15;;;9.40;99.90;;;;;;5016956;28;20049;-81
2022/07/28 00:06:58;;;;;;;0.57;0.40;;;9.90;99.90;;;;;;5001021;28;20488;-80
2022/07/28 00:09:24;;;;;;;0.10;0.10;;;9.40;99.90;;;;;;5017445;28;20124;-81
2022/07/28 00:11:49;;;;;;;0.10;0.10;;;9.40;99.90;;;;;;5033560;28;20037;-81
2022/07/28 00:14:15;;;;;;;0.10;0.10;;;9.40;99.90;;;;;;4999535;28;20107;-82
2022/07/28 00:16:41;;;;;;;0.10;0.10;;;9.50;99.90;;;;;;5017543;28;20055;-82
2022/07/28 00:19:07;;;;;;;0.00;0.00;;;9.50;99.90;;;;;;4985345;28;20144;-82
2022/07/28 00:21:33;;;;;;;0.10;0.10;;;9.50;99.90;;;;;;5034077;28;20392;-82
2022/07/28 00:23:58;;;;;;;0.10;0.10;;;9.50;99.90;;;;;;5032941;28;20053;-82
2022/07/28 00:26:24;;;;;;;0.30;0.30;;;9.60;99.90;;;;;;5031901;28;20068;-81
2022/07/28 00:28:50;;;;;;;0.85;0.52;;;9.50;99.90;;;;;;5034086;28;20054;-82
2022/07/28 00:31:16;;;;;;;0.10;0.10;;;9.50;99.90;;;;;;5017702;28;20041;-86
2022/07/28 00:33:42;;;;;;;0.30;0.30;;;9.50;99.90;;;;;;5017028;28;20088;-86
2022/07/28 00:36:08;;;;;;;0.28;0.28;;;9.50;99.90;;;;;;5014698;28;20099;-86
2022/07/28 00:38:34;;;;;;;0.00;0.00;;;9.60;99.90;;;;;;5033672;28;20131;-86
2022/07/28 00:41:09;;;;;;;0.17;0.17;;;9.60;99.90;;;;;;5016885;28;20038;-86
2022/07/28 00:43:40;;;;;;;0.00;0.00;;;10.30;99.90;;;;;;5033244;28;20037;-86
2022/07/28 00:46:07;;;;;;;0.00;0.00;;;9.60;99.90;;;;;;5015606;28;20488;-86
2022/07/28 00:48:36;;;;;;;0.20;0.20;;;10.00;99.90;;;;;;5033603;28;20104;-81
2022/07/28 00:51:02;;;;;;;0.10;0.10;;;9.70;99.90;;;;;;5016754;28;20044;-81
2022/07/28 00:53:29;;;;;;;0.00;0.00;;;9.70;99.90;;;;;;5033571;28;20041;-81
2022/07/28 00:55:56;;;;;;;0.13;0.13;;;9.70;99.90;;;;;;5015192;28;20052;-81
2022/07/28 00:58:22;;;;;;;0.22;0.22;;;9.70;99.90;;;;;;5032132;28;20041;-81
2022/07/28 01:00:47;;;;;;;0.00;0.00;;;9.70;99.90;;;;;;5032260;28;20384;-80
2022/07/28 01:03:13;;;;;;;0.32;0.22;;;9.70;99.90;;;;;;5033139;28;20041;-82
2022/07/28 01:06:01;;;;;;;0.10;0.10;;;9.70;99.90;;;;;;5000287;28;20041;-82
2022/07/28 01:08:35;;;;;;;0.98;0.65;;;9.80;99.90;;;;;;5031150;28;20080;-82
2022/07/28 01:11:12;;;;;;;0.00;0.00;;;9.70;99.90;;;;;;5016824;28;20044;-82
2022/07/28 01:13:53;;;;;;;0.85;0.85;;;9.80;99.90;;;;;;5032819;28;20496;-82
2022/07/28 01:16:19;;;;;;;0.35;0.28;;;9.80;99.90;;;;;;5030176;28;20526;-82
2022/07/28 01:18:53;;;;;;;0.20;0.17;;;9.80;99.90;;;;;;5016069;28;20041;-82
2022/07/28 01:21:27;;;;;;;0.30;0.30;;;9.80;99.90;;;;;;5032909;28;20045;-86
2022/07/28 01:24:17;;;;;;;0.08;0.08;;;9.80;99.90;;;;;;5033213;28;20037;-86
2022/07/28 01:27:03;;;;;;;0.00;0.00;;;9.80;99.90;;;;;;5032569;28;20064;-86
2022/07/28 01:29:49;;;;;;;0.00;0.00;;;9.80;99.90;;;;;;5032626;28;20180;-87
2022/07/28 01:32:24;;;;;;;0.00;0.00;;;9.80;99.90;;;;;;5016349;28;20041;-86
2022/07/28 01:35:04;;;;;;;0.10;0.10;;;9.90;99.90;;;;;;5032743;28;20053;-87
2022/07/28 01:37:31;;;;;;;0.20;0.20;;;9.90;99.90;;;;;;5029357;28;20309;-81
2022/07/28 01:40:00;;;;;;;0.32;0.32;;;9.80;99.90;;;;;;5000000;28;20040;-80
2022/07/28 01:42:32;;;;;;;0.17;0.10;;;9.80;99.90;;;;;;5032623;28;20047;-80
2022/07/28 01:44:59;;;;;;;0.00;0.00;;;9.80;99.90;;;;;;5032990;28;20206;-81
2022/07/28 01:47:28;;;;;;;0.05;0.05;;;9.80;99.90;;;;;;4999966;28;20049;-81
2022/07/28 01:49:58;;;;;;;0.00;0.00;;;9.80;99.90;;;;;;5031601;28;20399;-80
2022/07/28 01:52:25;;;;;;;0.40;0.40;;;9.80;99.90;;;;;;5032842;28;20037;-81
2022/07/28 01:54:52;;;;;;;1.45;0.30;;;9.80;99.90;;;;;;5032494;28;20041;-81
2022/07/28 01:57:19;;;;;;;0.00;0.00;;;9.70;99.90;;;;;;5032474;28;20045;-81
2022/07/28 01:59:47;;;;;;;2.90;0.63;;;9.70;99.90;;;;;;5032058;28;20053;-81
2022/07/28 02:02:16;;;;;;;0.15;0.15;;;9.70;99.90;;;;;;5015165;28;20088;-81
2022/07/28 02:04:44;;;;;;;0.00;0.00;;;9.90;99.90;;;;;;5016045;28;20472;-81
2022/07/28 02:07:10;;;;;;;0.00;0.00;;;9.60;99.90;;;;;;5032971;28;20045;-81
2022/07/28 02:09:38;;;;;;;0.00;0.00;;;9.60;99.90;;;;;;5017965;28;20611;-81
2022/07/28 02:12:06;;;;;;;0.00;0.00;;;9.60;99.90;;;;;;5019733;28;20095;-87
2022/07/28 02:14:35;;;;;;;0.00;0.00;;;9.60;99.90;;;;;;5036400;28;20061;-87
2022/07/28 02:17:10;;;;;;;0.00;0.00;;;9.50;99.90;;;;;;5019595;28;20073;-87
2022/07/28 02:19:38;;;;;;;0.15;0.15;;;9.50;99.90;;;;;;5034822;28;20062;-87
2022/07/28 02:22:05;;;;;;;0.25;0.25;;;9.50;99.90;;;;;;5019104;28;20037;-86
2022/07/28 02:24:33;;;;;;;0.00;0.00;;;9.40;99.90;;;;;;5020169;28;20379;-87
2022/07/28 02:27:23;;;;;;;0.10;0.10;;;9.40;99.90;;;;;;5019564;28;20041;-84
2022/07/28 02:29:56;;;;;;;0.00;0.00;;;9.40;99.90;;;;;;4990008;28;20100;-84
2022/07/28 02:32:37;;;;;;;0.00;0.00;;;9.40;99.90;;;;;;5035786;28;20119;-84
2022/07/28 02:35:29;;;;;;;0.00;0.00;;;9.40;99.90;;;;;;5035806;28;20169;-84
2022/07/28 02:38:09;;;;;;;0.43;0.30;;;9.40;99.90;;;;;;5005487;28;20495;-84
2022/07/28 02:40:37;;;;;;;0.00;0.00;;;9.50;99.90;;;;;;5018115;28;20372;-84
2022/07/28 02:43:08;;;;;;;0.32;0.32;;;9.50;99.90;;;;;;5035584;28;20123;-83
2022/07/28 02:45:37;;;;;;;0.00;0.00;;;9.50;99.90;;;;;;5035716;28;20053;-83
2022/07/28 02:48:09;;;;;;;0.00;0.00;;;9.50;99.90;;;;;;5035619;28;20103;-82
2022/07/28 02:50:35;;;;;;;0.10;0.10;;;10.00;99.90;;;;;;5019306;28;20038;-82
2022/07/28 02:53:03;;;;;;;0.00;0.00;;;9.60;99.90;;;;;;5035350;28;20036;-82
2022/07/28 02:55:30;;;;;;;0.10;0.10;;;9.40;99.90;;;;;;5035310;28;20076;-82
2022/07/28 02:57:57;;;;;;;0.00;0.00;;;9.40;99.90;;;;;;5019357;28;20357;-83
2022/07/28 03:00:24;;;;;;;0.00;0.00;;;9.40;99.90;;;;;;5034609;28;20126;-87
2022/07/28 03:02:53;;;;;;;2.10;0.30;;;9.50;99.90;;;;;;5034721;28;20095;-87
2022/07/28 03:05:19;;;;;;;0.10;0.10;;;9.70;99.90;;;;;;5035141;28;20053;-87
2022/07/28 03:07:45;;;;;;;0.22;0.20;;;9.60;99.90;;;;;;5018660;28;20071;-87
2022/07/28 03:10:26;;;;;;;0.10;0.10;;;9.50;99.90;;;;;;5035322;28;20045;-86
2022/07/28 03:12:52;;;;;;;0.10;0.10;;;9.50;99.90;;;;;;5033762;28;20412;-86
2022/07/28 03:15:18;;;;;;;0.05;0.05;;;9.50;99.90;;;;;;5035039;28;20389;-86
2022/07/28 03:17:44;;;;;;;0.35;0.35;;;9.50;99.90;;;;;;5035441;28;20054;-81
2022/07/28 03:20:11;;;;;;;0.20;0.20;;;9.40;99.90;;;;;;5018470;28;20124;-81
2022/07/28 03:22:37;;;;;;;0.10;0.10;;;9.40;99.90;;;;;;5017850;28;20452;-81
2022/07/28 03:25:26;;;;;;;0.00;0.00;;;9.40;99.90;;;;;;5018382;28;20077;-81
2022/07/28 03:27:53;;;;;;;0.10;0.10;;;9.30;99.90;;;;;;5034696;28;20096;-81
2022/07/28 03:30:25;;;;;;;0.00;0.00;;;9.30;99.90;;;;;;5034779;28;20045;-81
2022/07/28 03:32:57;;;;;;;0.03;0.03;;;9.20;99.90;;;;;;5035194;28;20041;-81
2022/07/28 03:35:23;;;;;;;0.00;0.00;;;9.40;99.90;;;;;;5005471;28;20037;-82
2022/07/28 03:37:58;;;;;;;0.13;0.13;;;9.20;99.90;;;;;;5015135;28;20488;-82
2022/07/28 03:40:27;;;;;;;0.10;0.10;;;9.20;99.90;;;;;;5015140;28;20046;-83
2022/07/28 03:42:55;;;;;;;0.10;0.10;;;9.20;99.90;;;;;;5015049;28;20058;-83
2022/07/28 03:45:21;;;;;;;0.28;0.20;;;9.30;99.90;;;;;;5031919;28;20042;-82
2022/07/28 03:47:53;;;;;;;0.20;0.15;;;9.20;99.90;;;;;;5034405;28;20042;-82
2022/07/28 03:50:26;;;;;;;0.00;0.00;;;9.40;99.90;;;;;;5018432;28;20116;-87
2022/07/28 03:52:53;;;;;;;0.00;0.00;;;9.30;99.90;;;;;;5034833;28;20041;-87
2022/07/28 03:55:19;;;;;;;0.10;0.10;;;9.30;99.90;;;;;;5033825;28;20453;-87
2022/07/28 03:57:46;;;;;;;0.10;0.10;;;9.40;99.90;;;;;;5034722;28;20403;-87
2022/07/28 04:00:13;;;;;;;0.32;0.30;;;9.40;99.90;;;;;;5017014;28;20091;-86
2022/07/28 04:02:42;;;;;;;0.13;0.13;;;9.50;99.90;;;;;;5034524;28;20403;-87
2022/07/28 04:05:13;;;;;;;0.20;0.20;;;9.50;99.90;;;;;;5002296;28;20045;-87
2022/07/28 04:07:40;;;;;;;0.20;0.20;;;9.60;99.90;;;;;;5033074;28;20050;-81
2022/07/28 04:10:10;;;;;;;0.00;0.00;;;9.70;99.90;;;;;;5033844;28;20172;-81
2022/07/28 04:12:51;;;;;;;0.00;0.00;;;9.70;99.90;;;;;;5001621;28;20042;-81
2022/07/28 04:15:17;;;;;;;0.20;0.20;;;9.90;99.90;;;;;;5045967;28;20057;-81
2022/07/28 04:17:44;;;;;;;0.05;0.05;;;10.00;99.90;;;;;;5021338;28;20049;-81
2022/07/28 04:20:10;;;;;;;0.10;0.08;;;10.00;99.90;;;;;;5052553;28;20053;-81
2022/07/28 04:22:36;;;;;;;0.00;0.00;;;10.10;99.90;;;;;;5054462;28;20076;-81
2022/07/28 04:25:03;;;;;;;0.00;0.00;;;10.10;99.90;;;;;;5020813;28;20048;-87
2022/07/28 04:27:28;;;;;;;0.00;0.00;;;10.00;99.90;;;;;;5037082;28;20045;-86
2022/07/28 04:29:54;;;;;;;0.00;0.00;;;10.00;99.90;;;;;;5036524;28;20041;-87
2022/07/28 04:32:20;;;;;;;0.00;0.00;;;9.90;99.90;;;;;;5051978;28;20037;-86
2022/07/28 04:34:45;;;;;;;0.10;0.10;;;9.90;99.90;;;;;;5020973;28;20102;-86
2022/07/28 04:37:13;;;;;;;0.00;0.00;;;9.80;99.90;;;;;;5036767;28;20470;-86
2022/07/28 04:39:39;;;;;;;0.00;0.00;;;9.80;99.90;;;;;;5037046;28;20087;-86
2022/07/28 04:42:05;;;;;;;0.00;0.00;;;9.80;99.90;;;;;;5020239;28;20080;-87
2022/07/28 04:44:31;;;;;;;0.00;0.00;;;9.80;99.90;;;;;;5051213;28;20102;-87
2022/07/28 04:46:57;;;;;;;0.00;0.00;;;9.80;99.90;;;;;;5053114;28;20509;-87
2022/07/28 04:49:23;;;;;;;0.00;0.00;;;9.80;99.90;;;;;;5053154;28;20040;-87
2022/07/28 04:51:50;;;;;;;0.40;0.15;;;9.80;99.90;;;;;;5036522;28;20128;-87
2022/07/28 04:54:16;;;;;;;0.20;0.20;;;9.80;99.90;;;;;;5017694;28;20033;-87
2022/07/28 04:56:42;;;;;;;0.10;0.10;;;9.80;99.90;;;;;;5052351;28;20095;-87
2022/07/28 04:59:08;;;;;;;0.10;0.10;;;9.80;99.90;;;;;;5025996;28;20094;-86
2022/07/28 05:01:37;;;;;;;0.17;0.10;;;9.90;99.90;;;;;;5012543;28;20376;-87
2022/07/28 05:04:04;;;;;;;0.00;0.00;;;10.00;99.90;;;;;;5051494;28;20081;-87
2022/07/28 05:06:30;;;;;;;0.00;0.00;;;10.10;99.90;;;;;;5036459;28;20107;-87
2022/07/28 05:08:56;;;;;;;0.00;0.00;;;10.50;99.90;;;;;;5036279;28;20037;-87
2022/07/28 05:11:21;;;;;;;0.00;0.00;;;10.60;99.90;;;;;;5052690;28;20094;-87
2022/07/28 05:13:47;;;;;;;0.22;0.20;;;10.70;99.90;;;;;;5052960;28;20360;-83
2022/07/28 05:16:13;;;;;;;0.00;0.00;;;10.80;99.90;;;;;;5032303;28;20128;-83
2022/07/28 05:18:38;;;;;;;0.32;0.20;;;11.00;99.90;;;;;;5033042;28;20053;-83
2022/07/28 05:21:04;;;;;;;0.00;0.00;;;11.00;99.90;;;;;;5016559;28;20112;-83
2022/07/28 05:23:30;;;;;;;1.35;0.43;;;11.20;99.90;;;;;;5032965;28;20556;-83
2022/07/28 05:25:55;;;;;;;0.00;0.00;;;11.30;99.90;;;;;;5015585;28;20048;-83
2022/07/28 05:28:21;;;;;;;0.10;0.10;;;11.30;99.90;;;;;;5016000;28;20056;-83
2022/07/28 05:30:47;;;;;;;0.00;0.00;;;11.30;99.90;;;;;;5032900;28;20033;-81
2022/07/28 05:33:16;;;;;;;0.00;0.00;;;11.50;99.90;;;;;;5033331;28;20033;-81
2022/07/28 05:35:43;;;;;;;0.10;0.10;;;11.60;99.90;;;;;;5015081;28;20073;-81
2022/07/28 05:38:09;;;;;;;0.00;0.00;;;11.80;99.90;;;;;;5000296;28;20515;-81
2022/07/28 05:40:35;;;;;;;0.00;0.00;;;11.90;99.90;;;;;;5032433;28;20045;-81
2022/07/28 05:43:00;;;;;;;0.00;0.00;;;12.20;99.90;;;;;;5016104;28;20099;-81
2022/07/28 05:45:26;;;;;;;0.10;0.10;;;12.40;99.90;;;;;;5033289;28;20045;-81
2022/07/28 05:47:52;;;;;;;0.05;0.05;;;12.60;99.90;;;;;;5015153;28;20077;-85
2022/07/28 05:50:20;;;;;;;0.45;0.45;;;13.20;99.90;;;;;;4999806;28;20069;-85
2022/07/28 05:52:47;;;;;;;0.10;0.10;;;13.30;99.90;;;;;;5032212;28;20037;-85
2022/07/28 05:55:14;;;;;;;0.00;0.00;;;13.70;99.90;;;;;;5016255;28;20087;-85
2022/07/28 05:57:40;;;;;;;0.10;0.10;;;13.80;99.90;;;;;;4999028;28;20084;-85
2022/07/28 06:00:17;;;;;;;0.17;0.17;;;14.30;99.90;;;;;;5031735;28;20048;-85
2022/07/28 06:02:44;;;;;;;0.00;0.00;;;14.70;99.90;;;;;;4996077;28;20096;-85
2022/07/28 06:05:11;;;;;;;0.20;0.20;;;14.80;99.90;;;;;;5013533;28;20042;-85
2022/07/28 06:07:36;;;;;;;0.25;0.25;;;15.00;99.90;;;;;;5027316;28;20081;-85
2022/07/28 06:10:03;;;;;;;0.10;0.10;;;15.30;99.90;;;;;;5024629;28;20080;-85
2022/07/28 06:12:28;;;;;;;0.00;0.00;;;15.60;99.90;;;;;;5032128;28;20037;-85
2022/07/28 06:14:54;;;;;;;0.10;0.10;;;15.80;99.90;;;;;;5024446;28;20102;-85
2022/07/28 06:17:20;;;;;;;0.00;0.00;;;16.30;99.90;;;;;;5051907;28;20072;-85
2022/07/28 06:19:46;;;;;;;0.08;0.08;;;16.80;99.90;;;;;;5034548;28;20052;-84
2022/07/28 06:22:14;;;;;;;0.10;0.10;;;17.70;99.90;;;;;;5002920;28;20037;-83
2022/07/28 06:24:40;;;;;;;0.08;0.08;;;18.30;99.90;;;;;;5052176;28;20096;-84
2022/07/28 06:27:06;;;;;;;0.22;0.22;;;18.40;99.90;;;;;;5052130;28;20037;-84
2022/07/28 06:29:31;;;;;;;0.10;0.10;;;18.50;99.90;;;;;;5050709;28;20082;-84
2022/07/28 06:31:57;;;;;;;0.30;0.20;;;18.60;99.90;;;;;;5051946;28;20041;-85
2022/07/28 06:34:23;;;;;;;0.03;0.03;;;18.60;99.90;;;;;;5052104;28;20040;-85
2022/07/28 06:36:49;;;;;;;0.00;0.00;;;18.70;99.90;;;;;;5035044;28;20055;-84
2022/07/28 06:39:14;;;;;;;0.10;0.10;;;19.00;99.90;;;;;;5050150;28;20079;-83
2022/07/28 06:41:43;;;;;;;0.30;0.20;;;19.40;99.90;;;;;;5035405;28;20081;-83
2022/07/28 06:44:09;;;;;;;0.00;0.00;;;19.80;99.90;;;;;;5035437;28;20044;-83
2022/07/28 06:46:35;;;;;;;0.00;0.00;;;20.00;99.90;;;;;;5051488;28;20072;-83
2022/07/28 06:49:01;;;;;;;0.10;0.10;;;20.00;99.90;;;;;;5051182;28;20076;-83
2022/07/28 06:51:27;;;;;;;0.20;0.20;;;20.10;99.90;;;;;;5051892;28;20044;-83
2022/07/28 06:53:54;;;;;;;0.10;0.10;;;20.10;99.90;;;;;;5053484;28;20467;-87
2022/07/28 06:56:21;;;;;;;0.00;0.00;;;20.20;99.90;;;;;;5055282;28;20482;-87
2022/07/28 06:58:46;;;;;;;0.10;0.10;;;20.30;99.90;;;;;;5038928;28;20120;-85
2022/07/28 07:01:13;;;;;;;0.00;0.00;;;20.70;99.90;;;;;;5036752;28;20439;-85
2022/07/28 07:03:39;;;;;;;0.10;0.10;;;21.00;99.90;;;;;;5055347;28;20080;-85
2022/07/28 07:06:05;;;;;;;0.00;0.00;;;21.20;99.90;;;;;;5038454;28;20079;-86
2022/07/28 07:08:31;;;;;;;0.25;0.25;;;21.40;99.90;;;;;;5038431;28;20072;-86
2022/07/28 07:10:57;;;;;;;0.22;0.22;;;21.50;99.90;;;;;;5054457;28;20041;-87
2022/07/28 07:13:23;;;;;;;0.08;0.08;;;21.50;99.90;;;;;;5021843;28;20045;-87
2022/07/28 07:15:49;;;;;;;0.00;0.00;;;21.40;99.90;;;;;;5046295;22;20199;-85
2022/07/28 07:18:15;;;;;;;0.10;0.10;;;21.30;99.90;;;;;;5018358;28;20065;-86
2022/07/28 07:20:40;;;;;;;0.03;0.03;;;21.10;99.60;;;;;;5018123;28;20056;-84
2022/07/28 07:23:06;;;;;;;0.20;0.20;;;20.80;99.90;;;;;;5029014;28;20455;-85
2022/07/28 07:25:32;;;;;;;0.00;0.00;;;20.70;99.90;;;;;;5033193;28;20124;-84
2022/07/28 07:27:58;;;;;;;0.00;0.00;;;20.50;99.90;;;;;;5012396;28;20091;-89
2022/07/28 07:30:23;;;;;;;0.03;0.03;;;20.30;99.90;;;;;;5034528;28;20138;-89
2022/07/28 07:32:49;;;;;;;0.00;0.00;;;20.10;99.90;;;;;;5016264;28;20029;-88
2022/07/28 07:35:15;;;;;;;0.08;0.08;;;19.90;99.90;;;;;;5034247;28;20041;-89
2022/07/28 07:37:41;;;;;;;0.00;0.00;;;19.70;99.90;;;;;;5015600;28;20045;-88
2022/07/28 07:40:07;;;;;;;0.00;0.00;;;19.60;99.90;;;;;;5033989;28;20045;-88
2022/07/28 07:42:33;;;;;;;0.00;0.00;;;19.50;99.90;;;;;;5016470;28;20498;-89
2022/07/28 07:44:59;;;;;;;0.05;0.05;;;19.50;99.90;;;;;;5034134;28;20499;-88
2022/07/28 07:47:24;;;;;;;0.00;0.00;;;19.50;99.90;;;;;;5034454;28;20037;-87
2022/07/28 07:49:50;;;;;;;0.00;0.00;;;19.40;99.90;;;;;;5032173;28;20033;-88
2022/07/28 07:52:16;;;;;;;0.08;0.08;;;19.20;99.90;;;;;;5016746;28;20038;-88
2022/07/28 07:54:41;;;;;;;0.10;0.10;;;19.20;99.90;;;;;;5034365;28;20404;-88
2022/07/28 07:57:08;;;;;;;0.38;0.30;;;19.00;99.90;;;;;;5018546;28;20129;-88
2022/07/28 07:59:34;;;;;;;0.43;0.13;;;18.80;99.90;;;;;;5033568;28;20102;-87
2022/07/28 08:01:59;;;;;;;0.00;0.00;;;18.70;99.90;;;;;;4999062;28;20045;-83
2022/07/28 08:04:25;;;;;;;0.20;0.17;;;18.60;99.90;;;;;;5015440;28;20095;-83
2022/07/28 08:06:52;;;;;;;0.00;0.00;;;18.40;99.90;;;;;;5016916;28;20045;-83
2022/07/28 08:09:18;;;;;;;0.00;0.00;;;18.30;99.90;;;;;;5017412;28;20037;-82
2022/07/28 08:11:44;;;;;;;0.00;0.00;;;18.30;99.90;;;;;;5033819;28;20048;-83
2022/07/28 08:14:10;;;;;;;0.47;0.45;;;18.20;99.90;;;;;;5032676;28;20395;-83
2022/07/28 08:16:36;;;;;;;0.22;0.22;;;18.20;99.90;;;;;;5016237;28;20050;-82
2022/07/28 08:19:02;;;;;;;0.00;0.00;;;18.10;99.90;;;;;;5017494;28;20404;-83
2022/07/28 08:21:28;;;;;;;0.10;0.10;;;18.10;99.90;;;;;;5033851;28;20045;-84
2022/07/28 08:23:55;;;;;;;0.05;0.05;;;18.10;99.90;;;;;;5033771;28;20041;-82
2022/07/28 08:26:24;;;;;;;0.03;0.03;;;18.10;99.90;;;;;;5033621;28;20095;-82
2022/07/28 08:28:50;;;;;;;0.10;0.10;;;18.20;99.90;;;;;;5033374;28;20042;-82
2022/07/28 08:31:20;;;;;;;0.10;0.10;;;18.30;99.90;;;;;;5033784;28;20042;-82
2022/07/28 08:33:49;;;;;;;0.00;0.00;;;18.30;99.90;;;;;;5033442;28;20037;-81
2022/07/28 08:36:15;;;;;;;0.15;0.15;;;18.50;99.90;;;;;;5015794;28;20371;-81
2022/07/28 08:38:41;;;;;;;0.00;0.00;;;18.70;99.90;;;;;;5034325;28;20053;-82
2022/07/28 08:41:15;;;;;;;0.10;0.10;;;18.90;99.90;;;;;;5033556;28;20400;-82
2022/07/28 08:43:42;;;;;;;0.00;0.00;;;19.30;99.90;;;;;;5017233;28;20045;-82
2022/07/28 08:46:08;;;;;;;0.00;0.00;;;19.60;99.90;;;;;;5017000;28;20458;-82
2022/07/28 08:48:36;;;;;;;0.00;0.00;;;20.00;99.90;;;;;;5032923;28;20041;-83
2022/07/28 08:51:05;;;;;;;0.10;0.10;;;20.30;99.90;;;;;;5016518;28;20514;-85
2022/07/28 08:53:33;;;;;;;0.20;0.20;;;20.60;99.90;;;;;;5014445;28;20384;-85
2022/07/28 08:56:11;;;;;;;0.08;0.08;;;20.90;99.90;;;;;;5032314;28;20111;-84
2022/07/28 08:58:37;;;;;;;0.10;0.10;;;21.20;99.70;;;;;;5033012;28;20472;-85
2022/07/28 09:01:07;;;;;;;0.00;0.00;;;21.50;99.50;;;;;;5016278;28;20099;-85
2022/07/28 09:03:33;;;;;;;0.00;0.00;;;21.80;99.00;;;;;;5032031;28;20513;-85
2022/07/28 09:05:58;;;;;;;0.13;0.10;;;22.00;99.50;;;;;;5000067;28;20042;-84
2022/07/28 09:08:24;;;;;;;0.00;0.00;;;22.10;98.60;;;;;;5016215;28;20049;-86
2022/07/28 09:10:50;;;;;;;0.00;0.00;;;22.20;97.30;;;;;;5032600;28;20073;-86
2022/07/28 09:13:17;;;;;;;0.20;0.20;;;22.30;99.10;;;;;;5032571;28;20495;-86
2022/07/28 09:15:47;;;;;;;0.10;0.10;;;22.40;97.10;;;;;;5030859;28;20053;-86
2022/07/28 09:18:16;;;;;;;0.30;0.20;;;22.30;95.90;;;;;;5013786;28;20068;-86
2022/07/28 09:20:43;;;;;;;0.43;0.32;;;23.00;95.40;;;;;;5011718;28;20049;-86
2022/07/28 09:23:09;;;;;;;0.00;0.00;;;23.60;94.50;;;;;;5032461;28;20048;-87
2022/07/28 09:25:36;;;;;;;0.00;0.00;;;24.70;94.60;;;;;;5014397;28;20049;-87
2022/07/28 09:28:17;;;;;;;0.10;0.10;;;26.40;93.80;;;;;;5012589;28;20042;-87
2022/07/28 09:30:45;;;;;;;0.00;0.00;;;28.10;91.00;;;;;;5026872;28;20044;-85
2022/07/28 09:33:15;;;;;;;0.30;0.30;;;28.20;89.60;;;;;;5032118;28;20041;-87
2022/07/28 09:35:49;;;;;;;0.00;0.00;;;28.00;86.70;;;;;;5030507;28;20123;-87
2022/07/28 09:38:18;;;;;;;0.10;0.10;;;27.70;86.20;;;;;;5012969;28;20100;-87
2022/07/28 09:40:59;;;;;;;0.10;0.10;;;27.30;86.60;;;;;;5029568;28;20062;-84
2022/07/28 09:43:36;;;;;;;0.25;0.25;;;27.50;87.30;;;;;;5025595;28;20046;-84
2022/07/28 09:46:16;;;;;;;0.00;0.00;;;28.20;88.30;;;;;;5015766;28;20360;-84
2022/07/28 09:48:48;;;;;;;0.00;0.00;;;28.80;83.50;;;;;;5012906;28;20037;-84
2022/07/28 09:51:31;;;;;;;0.10;0.10;;;29.40;84.90;;;;;;5012504;28;20129;-84
2022/07/28 09:54:11;;;;;;;0.03;0.03;;;29.60;82.50;;;;;;5027516;28;20064;-84
2022/07/28 09:56:39;;;;;;;0.10;0.10;;;30.10;83.00;;;;;;5019794;28;20037;-86
2022/07/28 09:59:06;;;;;;;0.70;0.40;;;30.30;79.90;;;;;;5028606;28;20042;-86
2022/07/28 10:01:32;;;;;;;0.22;0.20;;;30.60;79.90;;;;;;4996004;28;20048;-86
2022/07/28 10:04:00;;;;;;;0.00;0.00;;;30.10;78.30;;;;;;5015578;28;20038;-86
2022/07/28 10:06:31;;;;;;;0.08;0.08;;;30.10;76.80;;;;;;5022341;28;20046;-86
2022/07/28 10:08:59;;;;;;;0.10;0.10;;;30.20;78.40;;;;;;5013657;28;20124;-87
2022/07/28 10:11:26;;;;;;;0.10;0.10;;;30.10;75.40;;;;;;5015808;28;20041;-87
2022/07/28 10:13:53;;;;;;;8.90;0.50;;;30.50;78.80;;;;;;5031061;28;20041;-85
2022/07/28 10:16:20;;;;;;;0.00;0.00;;;31.10;77.80;;;;;;5023667;28;20034;-84
2022/07/28 10:18:47;;;;;;;0.00;0.00;;;31.80;74.90;;;;;;5031426;28;20037;-83
2022/07/28 10:21:15;;;;;;;0.15;0.15;;;30.20;74.10;;;;;;5022681;28;20042;-84
2022/07/28 10:23:49;;;;;;;0.00;0.00;;;30.10;74.90;;;;;;5014026;28;20050;-83
2022/07/28 10:26:16;;;;;;;0.00;0.00;;;29.20;76.30;;;;;;5025520;28;20045;-83
2022/07/28 10:28:50;;;;;;;0.08;0.08;;;29.00;73.70;;;;;;5029496;28;20053;-83
2022/07/28 10:31:44;;;;;;;0.10;0.10;;;28.10;75.60;;;;;;5025208;28;20046;-83
2022/07/28 10:34:40;;;;;;;0.00;0.00;;;27.70;75.50;;;;;;5031069;28;20095;-83
2022/07/28 10:37:12;;;;;;;0.10;0.10;;;27.60;76.50;;;;;;4993766;28;20108;-84
2022/07/28 10:39:46;;;;;;;0.20;0.20;;;27.50;77.10;;;;;;5026026;28;20037;-83
2022/07/28 10:42:14;;;;;;;0.10;0.10;;;27.50;78.00;;;;;;5019009;28;20045;-83
2022/07/28 10:44:44;;;;;;;0.08;0.08;;;27.00;75.90;;;;;;5034884;28;20121;-84
2022/07/28 10:47:11;;;;;;;0.00;0.00;;;27.00;78.40;;;;;;5017172;28;20121;-86
2022/07/28 10:49:38;;;;;;;0.00;0.00;;;26.60;78.50;;;;;;5034305;28;20065;-85
2022/07/28 10:52:08;;;;;;;0.00;0.00;;;26.40;80.10;;;;;;5023632;28;20091;-85
2022/07/28 10:54:44;;;;;;;0.10;0.10;;;26.70;79.70;;;;;;5034724;28;20120;-85
2022/07/28 10:57:12;;;;;;;0.00;0.00;;;26.30;79.10;;;;;;5035536;28;20049;-85
2022/07/28 10:59:53;;;;;;;0.10;0.10;;;25.50;77.60;;;;;;5018070;28;20108;-85
2022/07/28 11:02:44;;;;;;;0.08;0.08;;;24.50;79.90;;;;;;5035381;28;20069;-85
2022/07/28 11:05:40;;;;;;;0.10;0.10;;;23.10;82.80;;;;;;5016593;28;20095;-87
2022/07/28 11:08:26;;;;;;;0.00;0.00;;;22.20;83.50;;;;;;5017494;28;20511;-87
2022/07/28 11:10:54;;;;;;;0.00;0.00;;;21.50;86.40;;;;;;5034205;28;20037;-86
2022/07/28 11:13:31;;;;;;;0.20;0.20;;;21.00;88.30;;;;;;5018842;28;20459;-86
2022/07/28 11:16:13;;;;;;;1.90;0.28;;;20.60;90.20;;;;;;5018525;28;20096;-86
2022/07/28 11:19:00;;;;;;;0.05;0.05;;;20.30;91.00;;;;;;5014063;28;20377;-86
2022/07/28 11:21:26;;;;;;;0.10;0.10;;;20.10;91.10;;;;;;5025671;28;20479;-86
2022/07/28 11:23:56;;;;;;;0.05;0.05;;;19.90;91.50;;;;;;5018232;28;20049;-86
2022/07/28 11:26:22;;;;;;;0.10;0.10;;;19.80;91.90;;;;;;5034999;28;20067;-85
2022/07/28 11:28:59;;;;;;;0.10;0.10;;;19.60;92.00;;;;;;5017977;28;20033;-85
2022/07/28 11:31:46;;;;;;;0.10;0.10;;;19.40;92.20;;;;;;5018177;28;20073;-85
2022/07/28 11:34:17;;;;;;;0.00;0.00;;;19.50;92.80;;;;;;5035030;28;20175;-85
2022/07/28 11:37:04;;;;;;;0.00;0.00;;;19.40;92.90;;;;;;5018438;28;20052;-85
2022/07/28 11:39:36;;;;;;;0.10;0.10;;;19.40;92.90;;;;;;5032428;28;20044;-85
2022/07/28 11:42:24;;;;;;;0.03;0.03;;;19.50;92.80;;;;;;5033141;28;20395;-85
2022/07/28 11:44:51;;;;;;;0.00;0.00;;;19.50;92.50;;;;;;5018208;28;20076;-85
2022/07/28 11:47:28;;;;;;;0.00;0.00;;;19.50;93.30;;;;;;5002858;28;20483;-85
2022/07/28 11:50:12;;;;;;;0.00;0.00;;;19.50;92.80;;;;;;5033384;28;20054;-85
2022/07/28 11:52:38;;;;;;;0.52;0.22;;;19.50;93.00;;;;;;5002134;28;20518;-85
2022/07/28 11:55:05;;;;;;;0.17;0.17;;;19.50;93.10;;;;;;5019745;28;20041;-85
2022/07/28 11:57:39;;;;;;;0.03;0.03;;;19.60;93.40;;;;;;5001669;28;20484;-85
2022/07/28 12:00:06;;;;;;;0.00;0.00;;;19.80;93.70;;;;;;5033343;28;20088;-85
2022/07/28 12:02:33;;;;;;;0.30;0.30;;;20.10;93.50;;;;;;5034291;28;20049;-84
2022/07/28 12:05:04;;;;;;;0.00;0.00;;;20.30;93.40;;;;;;5016816;28;20044;-85
2022/07/28 12:07:50;;;;;;;0.10;0.10;;;20.60;92.60;;;;;;5017688;28;20472;-85
2022/07/28 12:10:27;;;;;;;;;;;20.90;92.60;;;;;;5031245;28;20128;-85
2022/07/28 12:12:55;;;;;;;0.10;0.10;;;21.20;92.60;;;;;;5030241;28;19917;-85
2022/07/28 12:15:21;;;;;;;0.10;0.10;;;21.60;92.00;;;;;;5025365;28;20053;-85
2022/07/28 12:17:48;;;;;;;0.00;0.00;;;22.00;91.60;;;;;;5005022;28;20045;-85
2022/07/28 12:20:16;;;;;;;0.10;0.10;;;22.30;90.60;;;;;;5020823;28;20052;-85
2022/07/28 12:23:04;;;;;;;0.00;0.00;;;22.50;91.20;;;;;;5017890;28;20471;-85
2022/07/28 12:25:42;;;;;;;0.10;0.10;;;23.10;91.10;;;;;;5017137;28;20045;-86
2022/07/28 12:28:21;;;;;;;0.10;0.10;;;24.00;90.40;;;;;;5013937;28;20042;-84
2022/07/28 12:30:50;;;;;;;0.10;0.10;;;25.10;89.40;;;;;;5005609;28;20069;-84
2022/07/28 12:33:22;;;;;;;0.00;0.00;;;25.80;87.60;;;;;;5033725;28;20113;-84
2022/07/28 12:35:51;;;;;;;0.00;0.00;;;26.50;85.70;;;;;;5033558;28;20041;-84
2022/07/28 12:38:21;;;;;;;0.00;0.00;;;26.80;84.20;;;;;;5017829;28;20033;-84
2022/07/28 12:40:46;;;;;;;0.00;0.00;;;27.00;86.00;;;;;;5032562;28;20045;-84
2022/07/28 12:43:18;;;;;;;0.00;0.00;;;27.10;82.00;;;;;;5033237;28;20091;-85
2022/07/28 12:45:47;;;;;;;0.22;0.22;;;27.10;82.10;;;;;;5017129;28;20045;-86
2022/07/28 12:48:14;;;;;;;0.20;0.20;;;27.30;82.60;;;;;;5016978;28;20056;-86
2022/07/28 12:50:40;;;;;;;0.10;0.10;;;27.40;81.10;;;;;;4999121;28;20038;-87
2022/07/28 12:53:08;;;;;;;1.35;0.90;;;27.30;79.90;;;;;;5033130;28;20049;-87
2022/07/28 12:55:35;;;;;;;0.40;0.40;;;26.70;79.90;;;;;;5032813;28;20402;-86
2022/07/28 12:58:01;;;;;;;0.30;0.20;;;26.20;78.80;;;;;;5016883;28;20558;-86
2022/07/28 13:00:33;;;;;;;0.00;0.00;;;26.20;81.70;;;;;;5016715;28;20383;-87
2022/07/28 13:03:18;;;;;;;0.20;0.20;;;27.40;81.40;;;;;;5032355;28;20052;-87